createdAt,value
2018-06-20T00:00:01.184Z,19.89
2018-06-20T00:02:31.870Z,19.91
2018-06-20T00:05:02.548Z,19.90
2018-06-20T00:07:33.268Z,19.87
2018-06-20T00:10:04.043Z,19.87
2018-06-20T00:12:34.820Z,19.85
2018-06-20T00:15:05.605Z,19.88
2018-06-20T00:17:36.268Z,19.88
2018-06-20T00:20:06.991Z,19.85
2018-06-20T00:22:37.720Z,19.81
2018-06-20T00:25:08.460Z,19.78
2018-06-20T00:27:39.111Z,19.76
2018-06-20T00:30:09.788Z,19.75
2018-06-20T00:32:40.437Z,19.74
2018-06-20T00:35:11.186Z,19.72
2018-06-20T00:37:41.821Z,19.73
2018-06-20T00:40:12.514Z,19.79
2018-06-20T00:42:43.152Z,19.79
2018-06-20T00:45:44.443Z,19.71
2018-06-20T00:48:15.178Z,19.72
2018-06-20T00:50:45.908Z,19.65
2018-06-20T00:53:16.552Z,19.61
2018-06-20T00:56:04.005Z,19.56
2018-06-20T00:58:34.659Z,19.57
2018-06-20T01:01:05.438Z,19.49
2018-06-20T01:03:36.193Z,19.47
2018-06-20T01:06:06.946Z,19.49
2018-06-20T01:08:37.608Z,19.53
2018-06-20T01:11:08.430Z,19.55
2018-06-20T01:13:39.115Z,19.54
2018-06-20T01:16:09.809Z,19.50
2018-06-20T01:18:40.481Z,19.45
2018-06-20T01:21:11.250Z,19.44
2018-06-20T01:23:42.043Z,19.41
2018-06-20T01:26:12.755Z,19.35
2018-06-20T01:28:43.437Z,19.36
2018-06-20T01:31:14.190Z,19.33
2018-06-20T01:33:44.828Z,19.33
2018-06-20T01:36:15.518Z,19.33
2018-06-20T01:38:46.266Z,19.33
2018-06-20T01:41:16.914Z,19.32
2018-06-20T01:43:47.636Z,19.32
2018-06-20T01:46:18.298Z,19.29
2018-06-20T01:48:49.004Z,19.33
2018-06-20T01:51:19.640Z,19.43
2018-06-20T01:53:50.332Z,19.48
2018-06-20T01:56:21.068Z,19.43
2018-06-20T01:58:51.762Z,19.33
2018-06-20T02:01:22.464Z,19.28
2018-06-20T02:03:53.180Z,19.26
2018-06-20T02:06:23.850Z,19.28
2018-06-20T02:08:58.536Z,19.19
2018-06-20T02:11:30.885Z,19.17
2018-06-20T02:14:01.611Z,19.26
2018-06-20T02:16:32.313Z,19.23
2018-06-20T02:19:03.050Z,19.20
2018-06-20T02:21:33.700Z,19.14
2018-06-20T02:24:04.542Z,19.15
2018-06-20T02:26:35.243Z,19.15
2018-06-20T02:29:05.982Z,19.16
2018-06-20T02:31:36.747Z,19.13
2018-06-20T02:34:07.507Z,19.20
2018-06-20T02:36:38.236Z,19.34
2018-06-20T02:39:09.525Z,19.27
2018-06-20T02:41:40.209Z,19.40
2018-06-20T02:44:10.952Z,19.38
2018-06-20T02:46:41.641Z,19.40
2018-06-20T02:49:12.354Z,19.34
2018-06-20T02:51:43.094Z,19.29
2018-06-20T02:54:13.824Z,19.25
2018-06-20T02:56:44.475Z,19.21
2018-06-20T02:59:15.231Z,19.23
2018-06-20T03:01:45.886Z,19.24
2018-06-20T03:04:16.572Z,19.19
2018-06-20T03:06:47.295Z,19.18
2018-06-20T03:09:21.118Z,19.13
2018-06-20T03:11:51.886Z,19.09
2018-06-20T03:14:22.664Z,19.11
2018-06-20T03:16:53.352Z,19.11
2018-06-20T03:19:25.544Z,19.15
2018-06-20T03:21:56.243Z,19.27
2018-06-20T03:24:26.933Z,19.20
2018-06-20T03:26:57.631Z,19.32
2018-06-20T03:29:28.276Z,19.33
2018-06-20T03:31:58.983Z,19.18
2018-06-20T03:34:29.665Z,19.33
2018-06-20T03:37:00.440Z,19.20
2018-06-20T03:39:31.127Z,19.12
2018-06-20T03:42:01.764Z,19.11
2018-06-20T03:44:32.531Z,19.25
2018-06-20T03:47:03.216Z,19.30
2018-06-20T03:49:33.872Z,19.27
2018-06-20T03:52:05.479Z,19.25
2018-06-20T03:54:36.196Z,19.24
2018-06-20T03:57:07.028Z,19.32
2018-06-20T03:59:37.700Z,19.17
2018-06-20T04:02:08.427Z,19.25
2018-06-20T04:04:39.080Z,19.30
2018-06-20T04:07:09.756Z,19.29
2018-06-20T04:09:40.401Z,19.22
2018-06-20T04:12:11.103Z,19.26
2018-06-20T04:14:41.756Z,19.18
2018-06-20T04:17:12.490Z,19.18
2018-06-20T04:19:43.196Z,19.19
2018-06-20T04:22:13.878Z,19.25
2018-06-20T04:24:44.565Z,19.30
2018-06-20T04:27:15.301Z,19.31
2018-06-20T04:29:45.984Z,19.38
2018-06-20T04:32:16.685Z,19.37
2018-06-20T04:34:47.382Z,19.38
2018-06-20T04:37:18.074Z,19.40
2018-06-20T04:39:48.706Z,19.46
2018-06-20T04:42:19.338Z,19.51
2018-06-20T04:44:49.977Z,19.58
2018-06-20T04:47:20.745Z,19.58
2018-06-20T04:49:51.395Z,19.54
2018-06-20T04:52:22.063Z,19.53
2018-06-20T04:54:52.997Z,19.57
2018-06-20T04:57:23.644Z,19.58
2018-06-20T04:59:54.295Z,19.60
2018-06-20T05:02:24.974Z,19.63
2018-06-20T05:04:55.583Z,19.67
2018-06-20T05:07:26.265Z,19.70
2018-06-20T05:09:56.922Z,19.71
2018-06-20T05:12:27.583Z,19.81
2018-06-20T05:14:58.208Z,19.92
2018-06-20T05:17:28.812Z,19.90
2018-06-20T05:19:59.481Z,19.82
2018-06-20T05:22:30.162Z,19.81
2018-06-20T05:25:00.802Z,19.95
2018-06-20T05:27:31.434Z,19.93
2018-06-20T05:30:02.082Z,19.93
2018-06-20T05:32:32.687Z,19.91
2018-06-20T05:35:03.303Z,19.97
2018-06-20T05:37:33.916Z,19.97
2018-06-20T05:40:10.138Z,20.05
2018-06-20T05:42:45.980Z,20.02
2018-06-20T05:45:21.822Z,20.12
2018-06-20T05:47:57.811Z,20.25
2018-06-20T05:50:33.607Z,20.18
2018-06-20T05:53:09.655Z,20.20
2018-06-20T05:55:46.448Z,20.38
2018-06-20T05:58:22.372Z,20.41
2018-06-20T06:00:58.138Z,20.38
2018-06-20T06:03:34.191Z,20.30
2018-06-20T06:06:16.411Z,20.32
2018-06-20T06:08:52.375Z,20.30
2018-06-20T06:11:28.177Z,20.37
2018-06-20T06:14:04.171Z,20.45
2018-06-20T06:16:40.068Z,20.46
2018-06-20T06:19:15.981Z,20.53
2018-06-20T06:21:51.969Z,20.50
2018-06-20T06:24:28.566Z,20.51
2018-06-20T06:27:04.566Z,20.54
2018-06-20T06:29:40.624Z,20.75
2018-06-20T06:32:16.667Z,20.70
2018-06-20T06:34:52.675Z,20.74
2018-06-20T06:37:28.568Z,20.78
2018-06-20T06:40:04.588Z,20.79
2018-06-20T06:42:40.382Z,20.75
2018-06-20T06:45:22.885Z,20.78
2018-06-20T06:47:58.745Z,20.77
2018-06-20T06:50:34.967Z,20.77
2018-06-20T06:53:10.665Z,20.78
2018-06-20T06:55:46.580Z,20.74
2018-06-20T06:58:22.457Z,20.72
2018-06-20T07:00:58.255Z,20.74
2018-06-20T07:03:34.255Z,20.92
2018-06-20T07:06:10.193Z,20.92
2018-06-20T07:08:46.146Z,20.94
2018-06-20T07:11:21.992Z,21.09
2018-06-20T07:13:57.904Z,21.13
2018-06-20T07:16:33.816Z,21.32
2018-06-20T07:19:09.744Z,21.50
2018-06-20T07:21:45.588Z,21.69
2018-06-20T07:24:21.669Z,21.81
2018-06-20T07:26:57.723Z,21.97
2018-06-20T07:29:33.541Z,22.14
2018-06-20T07:32:09.447Z,22.25
2018-06-20T07:34:45.304Z,22.37
2018-06-20T07:37:21.206Z,22.48
2018-06-20T07:39:57.078Z,22.58
2018-06-20T07:42:32.884Z,22.27
2018-06-20T07:45:09.062Z,22.18
2018-06-20T07:47:44.918Z,22.18
2018-06-20T07:50:20.886Z,22.25
2018-06-20T07:52:56.895Z,22.16
2018-06-20T07:55:32.834Z,22.13
2018-06-20T07:58:08.835Z,22.23
2018-06-20T08:00:49.958Z,22.35
2018-06-20T08:03:31.043Z,22.53
2018-06-20T08:06:12.006Z,22.74
2018-06-20T08:08:53.185Z,22.82
2018-06-20T08:11:34.332Z,22.83
2018-06-20T08:14:15.290Z,22.76
2018-06-20T08:17:54.805Z,22.48
2018-06-20T08:20:30.572Z,22.46
2018-06-20T08:23:06.519Z,22.55
2018-06-20T08:25:42.539Z,22.63
2018-06-20T08:28:18.586Z,22.72
2018-06-20T08:30:54.564Z,22.87
2018-06-20T08:33:30.474Z,23.06
2018-06-20T08:36:06.579Z,23.26
2018-06-20T08:38:42.430Z,23.43
2018-06-20T08:41:18.268Z,23.90
2018-06-20T08:43:54.158Z,24.14
2018-06-20T08:46:30.045Z,24.24
2018-06-20T08:49:05.836Z,24.34
2018-06-20T08:51:41.830Z,24.32
2018-06-20T08:54:17.755Z,24.38
2018-06-20T08:56:53.772Z,24.46
2018-06-20T08:59:29.572Z,24.55
2018-06-20T09:02:05.640Z,24.45
2018-06-20T09:04:46.852Z,24.25
2018-06-20T09:07:28.040Z,24.33
2018-06-20T09:10:09.012Z,24.55
2018-06-20T09:12:49.987Z,24.64
2018-06-20T09:15:31.015Z,24.45
2018-06-20T09:18:11.960Z,24.44
2018-06-20T09:20:47.743Z,24.42
2018-06-20T09:23:54.325Z,24.54
2018-06-20T09:26:30.294Z,24.42
2018-06-20T09:29:06.289Z,24.30
2018-06-20T09:31:42.184Z,24.09
2018-06-20T09:34:18.158Z,24.32
2018-06-20T09:36:53.987Z,24.78
2018-06-20T09:39:30.204Z,25.23
2018-06-20T09:42:06.188Z,25.56
2018-06-20T09:44:42.022Z,26.00
2018-06-20T09:47:17.881Z,26.35
2018-06-20T09:49:53.869Z,26.64
2018-06-20T09:52:29.676Z,26.55
2018-06-20T09:55:05.636Z,26.39
2018-06-20T09:57:41.668Z,26.08
2018-06-20T10:00:22.593Z,26.23
2018-06-20T10:03:03.475Z,26.50
2018-06-20T10:05:44.593Z,26.83
2018-06-20T10:08:25.776Z,27.19
2018-06-20T10:11:06.879Z,27.27
2018-06-20T10:13:45.367Z,27.36
2018-06-20T10:16:21.279Z,27.18
2018-06-20T10:18:57.493Z,26.81
2018-06-20T10:21:40.149Z,26.77
2018-06-20T10:24:15.967Z,26.78
2018-06-20T10:26:51.745Z,27.12
2018-06-20T10:29:27.594Z,27.45
2018-06-20T10:32:03.480Z,27.91
2018-06-20T10:34:39.438Z,28.19
2018-06-20T10:37:15.380Z,28.12
2018-06-20T10:39:51.196Z,28.30
2018-06-20T10:42:27.245Z,28.51
2018-06-20T10:45:08.207Z,28.21
2018-06-20T10:47:45.677Z,28.42
2018-06-20T10:50:21.479Z,28.46
2018-06-20T10:52:57.392Z,28.40
2018-06-20T10:55:33.327Z,28.37
2018-06-20T10:58:14.788Z,28.44
2018-06-20T11:00:55.930Z,28.84
2018-06-20T11:03:37.107Z,29.16
2018-06-20T11:06:18.019Z,29.30
2018-06-20T11:08:58.922Z,29.57
2018-06-20T11:11:40.027Z,29.71
2018-06-20T11:14:15.893Z,29.62
2018-06-20T11:16:51.881Z,29.08
2018-06-20T11:19:27.998Z,29.31
2018-06-20T11:22:03.807Z,29.36
2018-06-20T11:24:39.794Z,29.40
2018-06-20T11:27:15.695Z,29.12
2018-06-20T11:29:51.680Z,28.79
2018-06-20T11:32:27.718Z,28.73
2018-06-20T11:35:03.606Z,28.76
2018-06-20T11:37:39.516Z,29.03
2018-06-20T11:40:15.463Z,29.09
2018-06-20T11:42:51.460Z,28.88
2018-06-20T11:45:32.334Z,29.23
2018-06-20T11:48:08.363Z,29.67
2018-06-20T11:50:44.399Z,29.91
2018-06-20T11:53:55.467Z,29.76
2018-06-20T11:57:03.061Z,29.83
2018-06-20T11:59:44.103Z,29.94
2018-06-20T12:02:25.075Z,29.66
2018-06-20T12:05:06.140Z,29.71
2018-06-20T12:07:47.221Z,29.82
2018-06-20T12:10:28.362Z,30.16
2018-06-20T12:13:09.509Z,30.48
2018-06-20T12:15:50.698Z,30.76
2018-06-20T12:18:31.655Z,30.93
2018-06-20T12:21:12.678Z,31.29
2018-06-20T12:23:53.829Z,31.02
2018-06-20T12:26:34.813Z,30.80
2018-06-20T12:29:15.891Z,30.30
2018-06-20T12:31:56.902Z,30.76
2018-06-20T12:34:38.090Z,30.93
2018-06-20T12:37:19.096Z,31.15
2018-06-20T12:40:00.205Z,31.08
2018-06-20T12:42:41.462Z,30.93
2018-06-20T12:45:18.938Z,30.98
2018-06-20T12:47:57.872Z,31.17
2018-06-20T12:50:34.027Z,31.01
2018-06-20T12:53:10.183Z,30.87
2018-06-20T12:55:46.182Z,30.87
2018-06-20T12:58:22.026Z,30.77
2018-06-20T13:00:57.970Z,31.04
2018-06-20T13:03:33.879Z,31.11
2018-06-20T13:06:09.848Z,31.39
2018-06-20T13:08:45.821Z,31.27
2018-06-20T13:11:21.816Z,31.54
2018-06-20T13:13:57.851Z,31.27
2018-06-20T13:16:33.892Z,31.31
2018-06-20T13:19:09.895Z,31.18
2018-06-20T13:21:45.929Z,31.70
2018-06-20T13:24:21.943Z,32.02
2018-06-20T13:26:57.926Z,32.04
2018-06-20T13:29:33.767Z,32.41
2018-06-20T13:32:14.849Z,32.52
2018-06-20T13:34:55.823Z,31.81
2018-06-20T13:37:36.915Z,31.58
2018-06-20T13:40:18.023Z,31.71
2018-06-20T13:42:59.248Z,31.20
2018-06-20T13:45:40.555Z,30.80
2018-06-20T13:48:21.600Z,30.24
2018-06-20T13:50:57.407Z,30.50
2018-06-20T13:53:33.416Z,30.75
2018-06-20T13:56:09.505Z,30.95
2018-06-20T13:58:45.414Z,30.93
2018-06-20T14:01:21.304Z,31.10
2018-06-20T14:04:11.555Z,31.23
2018-06-20T14:06:47.372Z,31.52
2018-06-20T14:09:23.245Z,31.76
2018-06-20T14:11:59.243Z,31.90
2018-06-20T14:14:35.207Z,32.00
2018-06-20T14:17:11.111Z,31.87
2018-06-20T14:20:50.234Z,31.40
2018-06-20T14:23:26.108Z,31.26
2018-06-20T14:26:01.889Z,31.27
2018-06-20T14:28:37.762Z,31.25
2018-06-20T14:31:18.737Z,31.61
2018-06-20T14:33:59.524Z,31.91
2018-06-20T14:36:40.563Z,31.75
2018-06-20T14:39:21.836Z,31.80
2018-06-20T14:42:02.775Z,31.89
2018-06-20T14:44:38.709Z,31.56
2018-06-20T14:47:15.314Z,30.97
2018-06-20T14:49:51.276Z,30.44
2018-06-20T14:52:27.039Z,30.21
2018-06-20T14:55:03.153Z,30.17
2018-06-20T14:57:38.954Z,30.11
2018-06-20T15:00:14.862Z,30.03
2018-06-20T15:02:50.780Z,30.18
2018-06-20T15:05:26.780Z,30.57
2018-06-20T15:08:02.683Z,30.73
2018-06-20T15:10:38.651Z,30.40
2018-06-20T15:13:14.587Z,30.27
2018-06-20T15:15:50.533Z,30.05
2018-06-20T15:18:26.352Z,30.41
2018-06-20T15:21:02.048Z,30.53
2018-06-20T15:23:38.076Z,30.21
2018-06-20T15:26:19.177Z,30.17
2018-06-20T15:29:00.179Z,29.88
2018-06-20T15:32:39.919Z,29.69
2018-06-20T15:35:20.929Z,29.89
2018-06-20T15:38:01.842Z,30.06
2018-06-20T15:40:37.848Z,30.29
2018-06-20T15:43:14.034Z,30.43
2018-06-20T15:45:49.900Z,30.06
2018-06-20T15:48:26.075Z,29.80
2018-06-20T15:51:02.141Z,29.38
2018-06-20T15:53:38.059Z,29.32
2018-06-20T15:56:13.963Z,29.36
2018-06-20T15:58:49.949Z,29.28
2018-06-20T16:01:25.732Z,29.13
2018-06-20T16:04:01.432Z,29.31
2018-06-20T16:06:37.388Z,29.40
2018-06-20T16:09:18.522Z,29.42
2018-06-20T16:11:54.390Z,29.35
2018-06-20T16:14:30.383Z,29.39
2018-06-20T16:17:06.315Z,29.06
2018-06-20T16:19:47.252Z,28.96
2018-06-20T16:22:28.373Z,29.07
2018-06-20T16:25:09.549Z,28.95
2018-06-20T16:27:50.648Z,28.97
2018-06-20T16:30:39.516Z,29.04
2018-06-20T16:33:15.424Z,28.92
2018-06-20T16:35:51.430Z,28.83
2018-06-20T16:38:27.247Z,28.66
2018-06-20T16:41:03.067Z,28.68
2018-06-20T16:43:38.959Z,28.62
2018-06-20T16:46:14.894Z,28.61
2018-06-20T16:48:50.933Z,28.60
2018-06-20T16:51:26.878Z,28.53
2018-06-20T16:54:02.888Z,28.38
2018-06-20T16:56:38.739Z,28.36
2018-06-20T16:59:14.531Z,28.35
2018-06-20T17:01:55.632Z,28.17
2018-06-20T17:04:31.518Z,28.15
2018-06-20T17:07:07.592Z,28.07
2018-06-20T17:09:43.441Z,28.02
2018-06-20T17:12:24.402Z,27.98
2018-06-20T17:15:05.270Z,28.05
2018-06-20T17:17:46.240Z,27.95
2018-06-20T17:20:27.228Z,27.93
2018-06-20T17:23:08.226Z,27.91
2018-06-20T17:25:44.306Z,27.78
2018-06-20T17:28:20.172Z,27.83
2018-06-20T17:30:56.191Z,27.78
2018-06-20T17:33:32.038Z,27.65
2018-06-20T17:36:07.956Z,27.59
2018-06-20T17:38:43.926Z,27.43
2018-06-20T17:41:19.763Z,27.46
2018-06-20T17:43:55.632Z,27.42
2018-06-20T17:46:31.792Z,27.52
2018-06-20T17:49:07.791Z,27.56
2018-06-20T17:51:43.748Z,27.49
2018-06-20T17:54:19.484Z,27.49
2018-06-20T17:56:55.364Z,27.41
2018-06-20T17:59:31.152Z,27.35
2018-06-20T18:02:07.936Z,27.27
2018-06-20T18:04:49.146Z,27.25
2018-06-20T18:07:30.053Z,27.29
2018-06-20T18:10:11.368Z,27.23
2018-06-20T18:12:52.516Z,27.25
2018-06-20T18:15:33.510Z,27.25
2018-06-20T18:18:09.603Z,27.23
2018-06-20T18:20:45.393Z,27.19
2018-06-20T18:23:21.407Z,27.16
2018-06-20T18:25:57.239Z,27.12
2018-06-20T18:28:33.204Z,27.07
2018-06-20T18:31:09.351Z,26.99
2018-06-20T18:33:45.423Z,26.97
2018-06-20T18:36:21.369Z,26.90
2018-06-20T18:38:57.361Z,26.83
2018-06-20T18:41:33.268Z,26.77
2018-06-20T18:44:09.353Z,26.79
2018-06-20T18:46:45.332Z,26.67
2018-06-20T18:49:21.248Z,26.63
2018-06-20T18:51:57.236Z,26.57
2018-06-20T18:54:33.162Z,26.53
2018-06-20T18:57:13.066Z,26.45
2018-06-20T18:59:54.020Z,26.40
2018-06-20T19:02:34.994Z,26.36
2018-06-20T19:05:16.130Z,26.28
2018-06-20T19:07:57.372Z,26.19
2018-06-20T19:10:33.187Z,26.12
2018-06-20T19:13:09.080Z,26.04
2018-06-20T19:15:45.063Z,25.96
2018-06-20T19:18:20.886Z,25.87
2018-06-20T19:20:57.237Z,25.80
2018-06-20T19:23:33.021Z,25.71
2018-06-20T19:26:08.947Z,25.63
2018-06-20T19:28:44.946Z,25.58
2018-06-20T19:31:20.922Z,25.50
2018-06-20T19:33:57.141Z,25.44
2018-06-20T19:36:33.167Z,25.43
2018-06-20T19:40:17.292Z,25.32
2018-06-20T19:42:53.297Z,25.19
2018-06-20T19:45:29.257Z,25.15
2018-06-20T19:48:05.355Z,25.06
2018-06-20T19:50:41.172Z,24.99
2018-06-20T19:53:17.098Z,24.92
2018-06-20T19:55:53.077Z,24.85
2018-06-20T19:58:28.943Z,24.77
2018-06-20T20:01:04.980Z,24.71
2018-06-20T20:03:40.928Z,24.65
2018-06-20T20:06:17.069Z,24.60
2018-06-20T20:08:52.913Z,24.52
2018-06-20T20:11:28.848Z,24.46
2018-06-20T20:14:05.073Z,24.38
2018-06-20T20:16:41.113Z,24.34
2018-06-20T20:19:17.101Z,24.27
2018-06-20T20:21:53.150Z,24.21
2018-06-20T20:24:29.011Z,24.14
2018-06-20T20:27:04.955Z,24.09
2018-06-20T20:29:40.911Z,24.04
2018-06-20T20:32:16.845Z,24.01
2018-06-20T20:34:53.044Z,23.95
2018-06-20T20:37:28.876Z,23.92
2018-06-20T20:40:04.843Z,23.88
2018-06-20T20:42:41.026Z,23.83
2018-06-20T20:45:17.053Z,23.78
2018-06-20T20:47:53.201Z,23.74
2018-06-20T20:50:29.215Z,23.68
2018-06-20T20:53:05.257Z,23.64
2018-06-20T20:55:41.216Z,23.58
2018-06-20T20:58:17.243Z,23.53
2018-06-20T21:00:53.357Z,23.49
2018-06-20T21:03:29.457Z,23.43
2018-06-20T21:06:05.450Z,23.37
2018-06-20T21:08:41.425Z,23.31
2018-06-20T21:11:17.401Z,23.25
2018-06-20T21:13:53.624Z,23.19
2018-06-20T21:16:29.672Z,23.13
2018-06-20T21:19:05.604Z,23.07
2018-06-20T21:21:41.589Z,23.01
2018-06-20T21:24:17.649Z,22.92
2018-06-20T21:26:53.679Z,22.88
2018-06-20T21:29:29.842Z,22.83
2018-06-20T21:32:05.909Z,22.79
2018-06-20T21:34:41.971Z,22.73
2018-06-20T21:37:18.015Z,22.67
2018-06-20T21:39:53.974Z,22.63
2018-06-20T21:42:29.876Z,22.56
2018-06-20T21:45:06.212Z,22.50
2018-06-20T21:47:42.132Z,22.48
2018-06-20T21:50:18.134Z,22.43
2018-06-20T21:52:54.135Z,22.39
2018-06-20T21:55:30.048Z,22.36
2018-06-20T21:58:05.986Z,22.31
2018-06-20T22:00:41.980Z,22.25
2018-06-20T22:03:17.877Z,22.20
2018-06-20T22:05:53.953Z,22.18
2018-06-20T22:08:29.737Z,22.14
2018-06-20T22:11:05.799Z,22.09
2018-06-20T22:13:41.813Z,22.05
2018-06-20T22:16:17.861Z,22.06
2018-06-20T22:18:53.959Z,21.97
2018-06-20T22:21:29.885Z,21.93
2018-06-20T22:24:06.049Z,21.88
2018-06-20T22:26:42.079Z,21.84
2018-06-20T22:29:17.973Z,21.78
2018-06-20T22:31:53.941Z,21.81
2018-06-20T22:34:29.851Z,21.73
2018-06-20T22:37:05.957Z,21.62
2018-06-20T22:39:41.969Z,21.57
2018-06-20T22:42:17.974Z,21.53
2018-06-20T22:44:48.706Z,21.49
2018-06-20T22:47:19.429Z,21.47
2018-06-20T22:49:50.108Z,21.47
2018-06-20T22:52:20.856Z,21.45
2018-06-20T22:54:51.584Z,21.44
2018-06-20T22:57:22.481Z,21.45
2018-06-20T22:59:53.190Z,21.48
2018-06-20T23:02:24.048Z,21.52
2018-06-20T23:04:54.974Z,21.51
2018-06-20T23:07:25.700Z,21.50
2018-06-20T23:09:56.422Z,21.48
2018-06-20T23:12:27.134Z,21.43
2018-06-20T23:14:57.819Z,21.44
2018-06-20T23:17:28.510Z,21.44
2018-06-20T23:19:59.222Z,21.44
2018-06-20T23:22:29.906Z,21.43
2018-06-20T23:25:00.625Z,21.44
2018-06-20T23:27:31.332Z,21.42
2018-06-20T23:30:02.024Z,21.42
2018-06-20T23:32:32.792Z,21.39
2018-06-20T23:35:03.536Z,21.40
2018-06-20T23:37:34.281Z,21.42
2018-06-20T23:40:05.076Z,21.42
2018-06-20T23:42:36.410Z,21.39
2018-06-20T23:45:07.362Z,21.33
2018-06-20T23:47:38.089Z,21.31
2018-06-20T23:50:08.825Z,21.28
2018-06-20T23:52:39.573Z,21.27
2018-06-20T23:55:10.375Z,21.27
2018-06-20T23:57:41.089Z,21.26
